sensor_id;sensor_type;location;lat;lon;timestamp;temperature;humidity
23251;DHT22;11794;49.730;10.088;2023-11-19T00:02:13;6.40;99.90
23251;DHT22;11794;49.730;10.088;2023-11-19T00:04:39;6.40;99.90
23251;DHT22;11794;49.730;10.088;2023-11-19T00:07:05;6.50;99.90
23251;DHT22;11794;49.730;10.088;2023-11-19T00:09:33;6.50;99.90
23251;DHT22;11794;49.730;10.088;2023-11-19T00:11:59;6.50;99.90
23251;DHT22;11794;49.730;10.088;2023-11-19T00:14:26;6.50;99.90
23251;DHT22;11794;49.730;10.088;2023-11-19T00:16:51;6.60;99.90
23251;DHT22;11794;49.730;10.088;2023-11-19T00:19:17;6.50;99.90
23251;DHT22;11794;49.730;10.088;2023-11-19T00:21:42;6.60;99.90
23251;DHT22;11794;49.730;10.088;2023-11-19T00:24:09;6.60;99.90
23251;DHT22;11794;49.730;10.088;2023-11-19T00:26:34;6.60;99.90
23251;DHT22;11794;49.730;10.088;2023-11-19T00:29:00;6.60;99.90
23251;DHT22;11794;49.730;10.088;2023-11-19T00:31:25;6.60;99.90
23251;DHT22;11794;49.730;10.088;2023-11-19T00:33:53;6.60;99.90
23251;DHT22;11794;49.730;10.088;2023-11-19T00:36:19;6.60;99.90
23251;DHT22;11794;49.730;10.088;2023-11-19T00:38:44;6.70;99.90
23251;DHT22;11794;49.730;10.088;2023-11-19T00:41:10;6.70;99.90
23251;DHT22;11794;49.730;10.088;2023-11-19T00:43:35;6.70;99.90
23251;DHT22;11794;49.730;10.088;2023-11-19T00:46:01;6.70;99.90
23251;DHT22;11794;49.730;10.088;2023-11-19T00:48:29;6.70;99.90
23251;DHT22;11794;49.730;10.088;2023-11-19T00:50:55;6.70;99.90
23251;DHT22;11794;49.730;10.088;2023-11-19T00:53:20;6.70;99.90
23251;DHT22;11794;49.730;10.088;2023-11-19T00:55:46;6.70;99.90
23251;DHT22;11794;49.730;10.088;2023-11-19T00:58:11;6.80;99.90
23251;DHT22;11794;49.730;10.088;2023-11-19T01:00:37;6.80;99.90
23251;DHT22;11794;49.730;10.088;2023-11-19T01:03:02;6.80;99.90
23251;DHT22;11794;49.730;10.088;2023-11-19T01:05:28;6.80;99.90
23251;DHT22;11794;49.730;10.088;2023-11-19T01:07:54;6.80;99.90
23251;DHT22;11794;49.730;10.088;2023-11-19T01:10:20;6.80;99.90
23251;DHT22;11794;49.730;10.088;2023-11-19T01:12:46;6.80;99.90
23251;DHT22;11794;49.730;10.088;2023-11-19T01:15:11;6.80;99.90
23251;DHT22;11794;49.730;10.088;2023-11-19T01:17:38;6.80;99.90
23251;DHT22;11794;49.730;10.088;2023-11-19T01:20:04;6.80;99.90
23251;DHT22;11794;49.730;10.088;2023-11-19T01:22:32;6.80;99.90
23251;DHT22;11794;49.730;10.088;2023-11-19T01:24:57;6.90;99.90
23251;DHT22;11794;49.730;10.088;2023-11-19T01:27:23;6.90;99.90
23251;DHT22;11794;49.730;10.088;2023-11-19T01:29:50;6.90;99.90
23251;DHT22;11794;49.730;10.088;2023-11-19T01:32:15;6.90;99.90
23251;DHT22;11794;49.730;10.088;2023-11-19T01:34:41;7.00;99.90
23251;DHT22;11794;49.730;10.088;2023-11-19T01:37:06;7.00;99.90
23251;DHT22;11794;49.730;10.088;2023-11-19T01:39:32;7.00;99.90
23251;DHT22;11794;49.730;10.088;2023-11-19T01:41:57;7.00;99.90
23251;DHT22;11794;49.730;10.088;2023-11-19T01:44:23;7.00;99.90
23251;DHT22;11794;49.730;10.088;2023-11-19T01:46:48;7.00;99.90
23251;DHT22;11794;49.730;10.088;2023-11-19T01:49:15;7.00;99.90
23251;DHT22;11794;49.730;10.088;2023-11-19T01:51:42;7.00;99.90
23251;DHT22;11794;49.730;10.088;2023-11-19T01:54:08;7.00;99.90
23251;DHT22;11794;49.730;10.088;2023-11-19T01:56:34;7.00;99.90
23251;DHT22;11794;49.730;10.088;2023-11-19T01:59:00;7.00;99.90
23251;DHT22;11794;49.730;10.088;2023-11-19T02:01:26;7.00;99.90
23251;DHT22;11794;49.730;10.088;2023-11-19T02:03:52;7.00;99.90
23251;DHT22;11794;49.730;10.088;2023-11-19T02:06:18;7.00;99.90
23251;DHT22;11794;49.730;10.088;2023-11-19T02:08:43;7.00;99.90
23251;DHT22;11794;49.730;10.088;2023-11-19T02:11:09;7.10;99.90
23251;DHT22;11794;49.730;10.088;2023-11-19T02:13:37;7.10;99.90
23251;DHT22;11794;49.730;10.088;2023-11-19T02:16:03;7.10;99.90
23251;DHT22;11794;49.730;10.088;2023-11-19T02:18:29;7.10;99.90
23251;DHT22;11794;49.730;10.088;2023-11-19T02:20:55;7.10;99.90
23251;DHT22;11794;49.730;10.088;2023-11-19T02:23:21;7.10;99.90
23251;DHT22;11794;49.730;10.088;2023-11-19T02:26:13;7.10;99.90
23251;DHT22;11794;49.730;10.088;2023-11-19T02:28:41;7.20;99.90
23251;DHT22;11794;49.730;10.088;2023-11-19T02:31:07;7.20;99.90
23251;DHT22;11794;49.730;10.088;2023-11-19T02:33:37;7.20;99.90
23251;DHT22;11794;49.730;10.088;2023-11-19T02:36:07;7.30;99.90
23251;DHT22;11794;49.730;10.088;2023-11-19T02:38:35;7.20;99.90
23251;DHT22;11794;49.730;10.088;2023-11-19T02:41:04;7.20;99.90
23251;DHT22;11794;49.730;10.088;2023-11-19T02:43:31;7.30;99.90
23251;DHT22;11794;49.730;10.088;2023-11-19T02:46:04;7.30;99.90
23251;DHT22;11794;49.730;10.088;2023-11-19T02:48:33;7.30;99.90
23251;DHT22;11794;49.730;10.088;2023-11-19T02:51:01;7.30;99.90
23251;DHT22;11794;49.730;10.088;2023-11-19T02:53:26;7.30;99.90
23251;DHT22;11794;49.730;10.088;2023-11-19T02:55:54;7.30;99.90
23251;DHT22;11794;49.730;10.088;2023-11-19T02:58:29;7.30;99.90
23251;DHT22;11794;49.730;10.088;2023-11-19T03:00:55;7.40;99.90
23251;DHT22;11794;49.730;10.088;2023-11-19T03:03:25;7.40;99.90
23251;DHT22;11794;49.730;10.088;2023-11-19T03:05:57;7.40;99.90
23251;DHT22;11794;49.730;10.088;2023-11-19T03:08:22;7.40;99.90
23251;DHT22;11794;49.730;10.088;2023-11-19T03:10:48;7.40;99.90
23251;DHT22;11794;49.730;10.088;2023-11-19T03:13:14;7.40;99.90
23251;DHT22;11794;49.730;10.088;2023-11-19T03:15:41;7.50;99.90
23251;DHT22;11794;49.730;10.088;2023-11-19T03:18:07;7.50;99.90
23251;DHT22;11794;49.730;10.088;2023-11-19T03:20:32;7.60;99.90
23251;DHT22;11794;49.730;10.088;2023-11-19T03:22:58;7.60;99.90
23251;DHT22;11794;49.730;10.088;2023-11-19T03:25:27;7.60;99.90
23251;DHT22;11794;49.730;10.088;2023-11-19T03:27:52;7.70;99.90
23251;DHT22;11794;49.730;10.088;2023-11-19T03:30:18;7.70;99.90
23251;DHT22;11794;49.730;10.088;2023-11-19T03:32:46;7.80;99.90
23251;DHT22;11794;49.730;10.088;2023-11-19T03:35:11;7.80;99.90
23251;DHT22;11794;49.730;10.088;2023-11-19T03:37:37;7.80;99.90
23251;DHT22;11794;49.730;10.088;2023-11-19T03:40:03;7.80;99.90
23251;DHT22;11794;49.730;10.088;2023-11-19T03:42:29;7.90;99.90
23251;DHT22;11794;49.730;10.088;2023-11-19T03:44:56;7.90;99.90
23251;DHT22;11794;49.730;10.088;2023-11-19T03:47:22;8.00;99.90
23251;DHT22;11794;49.730;10.088;2023-11-19T03:49:50;8.00;99.90
23251;DHT22;11794;49.730;10.088;2023-11-19T03:52:17;8.00;99.90
23251;DHT22;11794;49.730;10.088;2023-11-19T03:54:43;8.10;99.90
23251;DHT22;11794;49.730;10.088;2023-11-19T03:57:09;8.10;99.90
23251;DHT22;11794;49.730;10.088;2023-11-19T03:59:37;8.10;99.90
23251;DHT22;11794;49.730;10.088;2023-11-19T04:02:03;8.20;99.90
23251;DHT22;11794;49.730;10.088;2023-11-19T04:04:28;8.20;99.90
23251;DHT22;11794;49.730;10.088;2023-11-19T04:06:57;8.20;99.90
23251;DHT22;11794;49.730;10.088;2023-11-19T04:09:23;8.20;99.90
23251;DHT22;11794;49.730;10.088;2023-11-19T04:11:49;8.30;99.90
23251;DHT22;11794;49.730;10.088;2023-11-19T04:14:14;8.40;99.90
23251;DHT22;11794;49.730;10.088;2023-11-19T04:16:40;8.40;99.90
23251;DHT22;11794;49.730;10.088;2023-11-19T04:19:06;8.40;99.90
23251;DHT22;11794;49.730;10.088;2023-11-19T04:21:32;8.40;99.90
23251;DHT22;11794;49.730;10.088;2023-11-19T04:23:57;8.50;99.90
23251;DHT22;11794;49.730;10.088;2023-11-19T04:26:23;8.50;99.90
23251;DHT22;11794;49.730;10.088;2023-11-19T04:28:48;8.60;99.90
23251;DHT22;11794;49.730;10.088;2023-11-19T04:31:15;8.60;99.90
23251;DHT22;11794;49.730;10.088;2023-11-19T04:33:42;8.70;99.90
23251;DHT22;11794;49.730;10.088;2023-11-19T04:36:08;8.70;99.90
23251;DHT22;11794;49.730;10.088;2023-11-19T04:38:33;8.70;99.90
23251;DHT22;11794;49.730;10.088;2023-11-19T04:41:00;8.80;99.90
23251;DHT22;11794;49.730;10.088;2023-11-19T04:43:25;8.80;99.90
23251;DHT22;11794;49.730;10.088;2023-11-19T04:45:51;8.90;99.90
23251;DHT22;11794;49.730;10.088;2023-11-19T04:48:16;8.90;99.90
23251;DHT22;11794;49.730;10.088;2023-11-19T04:50:42;9.00;99.90
23251;DHT22;11794;49.730;10.088;2023-11-19T04:53:07;9.10;99.90
23251;DHT22;11794;49.730;10.088;2023-11-19T04:55:33;9.10;99.90
23251;DHT22;11794;49.730;10.088;2023-11-19T04:57:58;9.10;99.90
23251;DHT22;11794;49.730;10.088;2023-11-19T05:00:24;9.10;99.90
23251;DHT22;11794;49.730;10.088;2023-11-19T05:02:49;9.10;99.90
23251;DHT22;11794;49.730;10.088;2023-11-19T05:05:16;9.10;99.90
23251;DHT22;11794;49.730;10.088;2023-11-19T05:07:41;9.20;99.90
23251;DHT22;11794;49.730;10.088;2023-11-19T05:10:07;9.20;99.90
23251;DHT22;11794;49.730;10.088;2023-11-19T05:12:33;9.20;99.90
23251;DHT22;11794;49.730;10.088;2023-11-19T05:14:59;9.20;99.90
23251;DHT22;11794;49.730;10.088;2023-11-19T05:17:25;9.20;99.90
23251;DHT22;11794;49.730;10.088;2023-11-19T05:19:51;9.20;99.90
23251;DHT22;11794;49.730;10.088;2023-11-19T05:22:17;9.20;99.90
23251;DHT22;11794;49.730;10.088;2023-11-19T05:24:42;9.20;99.90
23251;DHT22;11794;49.730;10.088;2023-11-19T05:27:08;9.20;99.90
23251;DHT22;11794;49.730;10.088;2023-11-19T05:29:34;9.20;99.90
23251;DHT22;11794;49.730;10.088;2023-11-19T05:31:59;9.20;99.90
23251;DHT22;11794;49.730;10.088;2023-11-19T05:34:25;9.30;99.90
23251;DHT22;11794;49.730;10.088;2023-11-19T05:36:51;9.30;99.90
23251;DHT22;11794;49.730;10.088;2023-11-19T05:39:17;9.20;99.90
23251;DHT22;11794;49.730;10.088;2023-11-19T05:41:44;9.30;99.90
23251;DHT22;11794;49.730;10.088;2023-11-19T05:44:09;9.30;99.90
23251;DHT22;11794;49.730;10.088;2023-11-19T05:46:35;9.30;99.90
23251;DHT22;11794;49.730;10.088;2023-11-19T05:49:05;9.30;99.90
23251;DHT22;11794;49.730;10.088;2023-11-19T05:51:31;9.30;99.90
23251;DHT22;11794;49.730;10.088;2023-11-19T05:53:56;9.40;99.90
23251;DHT22;11794;49.730;10.088;2023-11-19T05:56:22;9.30;99.90
23251;DHT22;11794;49.730;10.088;2023-11-19T05:58:48;9.30;99.90
23251;DHT22;11794;49.730;10.088;2023-11-19T06:01:14;9.40;99.90
23251;DHT22;11794;49.730;10.088;2023-11-19T06:03:40;9.40;99.90
23251;DHT22;11794;49.730;10.088;2023-11-19T06:06:06;9.40;99.90
23251;DHT22;11794;49.730;10.088;2023-11-19T06:08:32;9.40;99.90
23251;DHT22;11794;49.730;10.088;2023-11-19T06:10:58;9.40;99.90
23251;DHT22;11794;49.730;10.088;2023-11-19T06:13:23;9.40;99.90
23251;DHT22;11794;49.730;10.088;2023-11-19T06:15:50;9.40;99.90
23251;DHT22;11794;49.730;10.088;2023-11-19T06:18:16;9.40;99.90
23251;DHT22;11794;49.730;10.088;2023-11-19T06:20:42;9.50;99.90
23251;DHT22;11794;49.730;10.088;2023-11-19T06:23:07;9.50;99.90
23251;DHT22;11794;49.730;10.088;2023-11-19T06:25:33;9.50;99.90
23251;DHT22;11794;49.730;10.088;2023-11-19T06:28:00;9.50;99.90
23251;DHT22;11794;49.730;10.088;2023-11-19T06:30:26;9.50;99.90
23251;DHT22;11794;49.730;10.088;2023-11-19T06:32:53;9.60;99.90
23251;DHT22;11794;49.730;10.088;2023-11-19T06:35:19;9.60;99.90
23251;DHT22;11794;49.730;10.088;2023-11-19T06:37:44;9.60;99.90
23251;DHT22;11794;49.730;10.088;2023-11-19T06:40:10;9.60;99.90
23251;DHT22;11794;49.730;10.088;2023-11-19T06:42:37;9.70;99.90
23251;DHT22;11794;49.730;10.088;2023-11-19T06:45:04;9.70;99.90
23251;DHT22;11794;49.730;10.088;2023-11-19T06:47:29;9.70;99.90
23251;DHT22;11794;49.730;10.088;2023-11-19T06:49:55;9.70;99.90
23251;DHT22;11794;49.730;10.088;2023-11-19T06:52:20;9.80;99.90
23251;DHT22;11794;49.730;10.088;2023-11-19T06:54:46;9.80;99.90
23251;DHT22;11794;49.730;10.088;2023-11-19T06:57:12;9.80;99.90
23251;DHT22;11794;49.730;10.088;2023-11-19T06:59:38;9.90;99.90
23251;DHT22;11794;49.730;10.088;2023-11-19T07:02:04;9.90;99.90
23251;DHT22;11794;49.730;10.088;2023-11-19T07:04:32;9.90;99.90
23251;DHT22;11794;49.730;10.088;2023-11-19T07:07:01;9.90;99.90
23251;DHT22;11794;49.730;10.088;2023-11-19T07:09:26;10.00;99.90
23251;DHT22;11794;49.730;10.088;2023-11-19T07:11:52;10.00;99.90
23251;DHT22;11794;49.730;10.088;2023-11-19T07:14:18;10.00;99.90
23251;DHT22;11794;49.730;10.088;2023-11-19T07:16:44;10.00;99.90
23251;DHT22;11794;49.730;10.088;2023-11-19T07:19:11;10.00;99.90
23251;DHT22;11794;49.730;10.088;2023-11-19T07:21:37;10.00;99.90
23251;DHT22;11794;49.730;10.088;2023-11-19T07:24:09;10.00;99.90
23251;DHT22;11794;49.730;10.088;2023-11-19T07:26:36;10.00;99.90
23251;DHT22;11794;49.730;10.088;2023-11-19T07:29:02;10.10;99.90
23251;DHT22;11794;49.730;10.088;2023-11-19T07:31:28;10.10;99.90
23251;DHT22;11794;49.730;10.088;2023-11-19T07:33:53;10.10;99.90
23251;DHT22;11794;49.730;10.088;2023-11-19T07:36:19;10.10;99.90
23251;DHT22;11794;49.730;10.088;2023-11-19T07:38:45;10.10;99.90
23251;DHT22;11794;49.730;10.088;2023-11-19T07:41:11;10.10;99.90
23251;DHT22;11794;49.730;10.088;2023-11-19T07:43:39;10.10;99.90
23251;DHT22;11794;49.730;10.088;2023-11-19T07:46:09;10.10;99.90
23251;DHT22;11794;49.730;10.088;2023-11-19T07:48:35;10.20;99.90
23251;DHT22;11794;49.730;10.088;2023-11-19T07:51:01;10.20;99.90
23251;DHT22;11794;49.730;10.088;2023-11-19T07:53:27;10.30;99.90
23251;DHT22;11794;49.730;10.088;2023-11-19T07:55:53;10.30;99.90
23251;DHT22;11794;49.730;10.088;2023-11-19T07:58:18;10.30;99.90
23251;DHT22;11794;49.730;10.088;2023-11-19T08:00:44;10.40;99.90
23251;DHT22;11794;49.730;10.088;2023-11-19T08:03:09;10.40;99.90
23251;DHT22;11794;49.730;10.088;2023-11-19T08:05:36;10.50;99.90
23251;DHT22;11794;49.730;10.088;2023-11-19T08:08:01;10.50;99.90
23251;DHT22;11794;49.730;10.088;2023-11-19T08:10:27;10.50;99.90
23251;DHT22;11794;49.730;10.088;2023-11-19T08:12:52;10.60;99.90
23251;DHT22;11794;49.730;10.088;2023-11-19T08:15:18;10.60;99.90
23251;DHT22;11794;49.730;10.088;2023-11-19T08:17:43;10.60;99.90
23251;DHT22;11794;49.730;10.088;2023-11-19T08:20:09;10.60;99.90
23251;DHT22;11794;49.730;10.088;2023-11-19T08:22:36;10.70;99.90
23251;DHT22;11794;49.730;10.088;2023-11-19T08:25:04;10.70;99.90
23251;DHT22;11794;49.730;10.088;2023-11-19T08:27:30;10.80;99.90
23251;DHT22;11794;49.730;10.088;2023-11-19T08:29:55;10.90;99.90
23251;DHT22;11794;49.730;10.088;2023-11-19T08:32:25;10.90;99.90
23251;DHT22;11794;49.730;10.088;2023-11-19T08:34:50;11.00;99.90
23251;DHT22;11794;49.730;10.088;2023-11-19T08:37:16;11.00;99.90
23251;DHT22;11794;49.730;10.088;2023-11-19T08:39:49;11.10;99.90
23251;DHT22;11794;49.730;10.088;2023-11-19T08:42:15;11.30;99.90
23251;DHT22;11794;49.730;10.088;2023-11-19T08:44:41;11.40;99.90
23251;DHT22;11794;49.730;10.088;2023-11-19T08:47:09;11.70;99.90
23251;DHT22;11794;49.730;10.088;2023-11-19T08:49:35;12.70;99.90
23251;DHT22;11794;49.730;10.088;2023-11-19T08:52:00;13.10;99.90
23251;DHT22;11794;49.730;10.088;2023-11-19T08:54:26;13.00;99.90
23251;DHT22;11794;49.730;10.088;2023-11-19T08:56:51;13.30;99.90
23251;DHT22;11794;49.730;10.088;2023-11-19T08:59:17;13.10;99.90
23251;DHT22;11794;49.730;10.088;2023-11-19T09:01:44;12.90;99.90
23251;DHT22;11794;49.730;10.088;2023-11-19T09:04:09;12.70;99.90
23251;DHT22;11794;49.730;10.088;2023-11-19T09:06:36;12.60;99.90
23251;DHT22;11794;49.730;10.088;2023-11-19T09:09:02;13.20;99.90
23251;DHT22;11794;49.730;10.088;2023-11-19T09:11:28;13.30;99.90
23251;DHT22;11794;49.730;10.088;2023-11-19T09:13:54;13.10;99.90
23251;DHT22;11794;49.730;10.088;2023-11-19T09:16:19;13.00;99.90
23251;DHT22;11794;49.730;10.088;2023-11-19T09:18:45;12.90;99.90
23251;DHT22;11794;49.730;10.088;2023-11-19T09:21:14;12.90;99.90
23251;DHT22;11794;49.730;10.088;2023-11-19T09:23:39;13.50;99.90
23251;DHT22;11794;49.730;10.088;2023-11-19T09:26:06;14.90;99.90
23251;DHT22;11794;49.730;10.088;2023-11-19T09:28:33;15.80;99.90
23251;DHT22;11794;49.730;10.088;2023-11-19T09:30:58;16.80;99.90
23251;DHT22;11794;49.730;10.088;2023-11-19T09:33:24;17.20;99.90
23251;DHT22;11794;49.730;10.088;2023-11-19T09:35:50;17.60;99.90
23251;DHT22;11794;49.730;10.088;2023-11-19T09:38:16;17.50;99.90
23251;DHT22;11794;49.730;10.088;2023-11-19T09:40:42;17.50;99.90
23251;DHT22;11794;49.730;10.088;2023-11-19T09:43:08;17.30;99.90
23251;DHT22;11794;49.730;10.088;2023-11-19T09:45:48;17.10;99.90
23251;DHT22;11794;49.730;10.088;2023-11-19T09:48:16;16.80;99.90
23251;DHT22;11794;49.730;10.088;2023-11-19T09:50:42;16.20;99.90
23251;DHT22;11794;49.730;10.088;2023-11-19T09:53:08;15.80;99.90
23251;DHT22;11794;49.730;10.088;2023-11-19T09:55:34;15.80;99.90
23251;DHT22;11794;49.730;10.088;2023-11-19T09:58:01;15.60;99.90
23251;DHT22;11794;49.730;10.088;2023-11-19T10:00:27;16.00;99.90
23251;DHT22;11794;49.730;10.088;2023-11-19T10:02:54;16.60;99.90
23251;DHT22;11794;49.730;10.088;2023-11-19T10:05:21;17.30;99.90
23251;DHT22;11794;49.730;10.088;2023-11-19T10:07:47;18.50;99.90
23251;DHT22;11794;49.730;10.088;2023-11-19T10:10:13;18.90;99.90
23251;DHT22;11794;49.730;10.088;2023-11-19T10:12:44;19.30;99.90
23251;DHT22;11794;49.730;10.088;2023-11-19T10:15:20;18.80;99.90
23251;DHT22;11794;49.730;10.088;2023-11-19T10:17:47;17.30;99.90
23251;DHT22;11794;49.730;10.088;2023-11-19T10:20:13;16.10;99.90
23251;DHT22;11794;49.730;10.088;2023-11-19T10:22:38;15.00;99.90
23251;DHT22;11794;49.730;10.088;2023-11-19T10:25:05;14.40;99.90
23251;DHT22;11794;49.730;10.088;2023-11-19T10:27:30;14.20;99.90
23251;DHT22;11794;49.730;10.088;2023-11-19T10:29:59;14.00;99.90
23251;DHT22;11794;49.730;10.088;2023-11-19T10:32:25;14.00;99.90
23251;DHT22;11794;49.730;10.088;2023-11-19T10:34:51;14.10;99.90
23251;DHT22;11794;49.730;10.088;2023-11-19T10:37:29;14.00;99.90
23251;DHT22;11794;49.730;10.088;2023-11-19T10:39:58;13.90;99.90
23251;DHT22;11794;49.730;10.088;2023-11-19T10:42:23;13.80;99.90
23251;DHT22;11794;49.730;10.088;2023-11-19T10:44:49;13.70;99.90
23251;DHT22;11794;49.730;10.088;2023-11-19T10:47:15;13.80;99.90
23251;DHT22;11794;49.730;10.088;2023-11-19T10:49:44;15.00;99.90
23251;DHT22;11794;49.730;10.088;2023-11-19T10:52:12;15.30;99.90
23251;DHT22;11794;49.730;10.088;2023-11-19T10:54:42;16.00;99.90
23251;DHT22;11794;49.730;10.088;2023-11-19T10:57:09;15.60;99.90
23251;DHT22;11794;49.730;10.088;2023-11-19T10:59:38;15.00;99.90
23251;DHT22;11794;49.730;10.088;2023-11-19T11:02:07;14.70;99.90
23251;DHT22;11794;49.730;10.088;2023-11-19T11:04:39;14.30;99.90
23251;DHT22;11794;49.730;10.088;2023-11-19T11:07:05;14.10;99.90
23251;DHT22;11794;49.730;10.088;2023-11-19T11:09:32;13.90;99.90
23251;DHT22;11794;49.730;10.088;2023-11-19T11:11:59;13.80;99.90
23251;DHT22;11794;49.730;10.088;2023-11-19T11:14:26;13.80;99.90
23251;DHT22;11794;49.730;10.088;2023-11-19T11:16:53;13.70;99.90
23251;DHT22;11794;49.730;10.088;2023-11-19T11:19:18;13.50;99.90
23251;DHT22;11794;49.730;10.088;2023-11-19T11:21:47;13.30;99.90
23251;DHT22;11794;49.730;10.088;2023-11-19T11:27:09;12.70;99.90
23251;DHT22;11794;49.730;10.088;2023-11-19T11:32:51;12.40;99.90
23251;DHT22;11794;49.730;10.088;2023-11-19T11:38:00;12.40;99.90
23251;DHT22;11794;49.730;10.088;2023-11-19T11:40:27;12.50;99.90
23251;DHT22;11794;49.730;10.088;2023-11-19T11:42:52;12.50;99.90
23251;DHT22;11794;49.730;10.088;2023-11-19T11:45:19;12.50;99.90
23251;DHT22;11794;49.730;10.088;2023-11-19T11:50:20;14.30;99.90
23251;DHT22;11794;49.730;10.088;2023-11-19T11:55:27;13.40;99.90
23251;DHT22;11794;49.730;10.088;2023-11-19T11:57:56;14.20;99.90
23251;DHT22;11794;49.730;10.088;2023-11-19T12:00:32;15.20;99.90
23251;DHT22;11794;49.730;10.088;2023-11-19T12:03:00;16.70;99.90
23251;DHT22;11794;49.730;10.088;2023-11-19T12:05:26;17.60;99.90
23251;DHT22;11794;49.730;10.088;2023-11-19T12:08:01;17.40;99.90
23251;DHT22;11794;49.730;10.088;2023-11-19T12:10:32;16.60;99.90
23251;DHT22;11794;49.730;10.088;2023-11-19T12:13:01;16.10;99.90
23251;DHT22;11794;49.730;10.088;2023-11-19T12:15:27;16.90;99.90
23251;DHT22;11794;49.730;10.088;2023-11-19T12:17:54;16.60;99.90
23251;DHT22;11794;49.730;10.088;2023-11-19T12:20:24;16.30;99.90
23251;DHT22;11794;49.730;10.088;2023-11-19T12:22:51;16.60;99.90
23251;DHT22;11794;49.730;10.088;2023-11-19T12:25:17;17.20;99.90
23251;DHT22;11794;49.730;10.088;2023-11-19T12:27:46;18.60;99.90
23251;DHT22;11794;49.730;10.088;2023-11-19T12:30:12;19.00;99.90
23251;DHT22;11794;49.730;10.088;2023-11-19T12:32:42;18.80;99.90
23251;DHT22;11794;49.730;10.088;2023-11-19T12:35:10;18.90;99.90
23251;DHT22;11794;49.730;10.088;2023-11-19T12:37:42;18.80;99.90
23251;DHT22;11794;49.730;10.088;2023-11-19T12:42:45;16.90;99.90
23251;DHT22;11794;49.730;10.088;2023-11-19T12:45:11;15.80;99.90
23251;DHT22;11794;49.730;10.088;2023-11-19T12:47:38;15.10;99.90
23251;DHT22;11794;49.730;10.088;2023-11-19T12:50:04;14.60;99.90
23251;DHT22;11794;49.730;10.088;2023-11-19T12:52:30;14.30;99.90
23251;DHT22;11794;49.730;10.088;2023-11-19T12:54:56;14.00;99.90
23251;DHT22;11794;49.730;10.088;2023-11-19T12:57:38;13.80;99.90
23251;DHT22;11794;49.730;10.088;2023-11-19T13:00:05;13.70;99.90
23251;DHT22;11794;49.730;10.088;2023-11-19T13:02:46;13.70;99.90
23251;DHT22;11794;49.730;10.088;2023-11-19T13:08:08;13.70;99.90
23251;DHT22;11794;49.730;10.088;2023-11-19T13:10:50;13.60;99.90
23251;DHT22;11794;49.730;10.088;2023-11-19T13:13:16;13.50;99.90
23251;DHT22;11794;49.730;10.088;2023-11-19T13:15:42;13.60;99.90
23251;DHT22;11794;49.730;10.088;2023-11-19T13:18:10;13.60;99.90
23251;DHT22;11794;49.730;10.088;2023-11-19T13:20:36;13.50;99.90
23251;DHT22;11794;49.730;10.088;2023-11-19T13:23:03;13.50;99.90
23251;DHT22;11794;49.730;10.088;2023-11-19T13:25:30;13.50;99.90
23251;DHT22;11794;49.730;10.088;2023-11-19T13:27:56;13.70;99.90
23251;DHT22;11794;49.730;10.088;2023-11-19T13:30:23;13.80;99.90
23251;DHT22;11794;49.730;10.088;2023-11-19T13:32:49;14.00;99.90
23251;DHT22;11794;49.730;10.088;2023-11-19T13:35:15;14.40;99.90
23251;DHT22;11794;49.730;10.088;2023-11-19T13:37:42;14.80;99.90
23251;DHT22;11794;49.730;10.088;2023-11-19T13:40:08;15.60;99.90
23251;DHT22;11794;49.730;10.088;2023-11-19T13:42:40;16.40;99.90
23251;DHT22;11794;49.730;10.088;2023-11-19T13:45:15;16.90;99.90
23251;DHT22;11794;49.730;10.088;2023-11-19T13:47:43;17.10;99.90
23251;DHT22;11794;49.730;10.088;2023-11-19T13:50:10;16.90;99.90
23251;DHT22;11794;49.730;10.088;2023-11-19T13:52:37;16.40;99.90
23251;DHT22;11794;49.730;10.088;2023-11-19T13:55:08;15.30;99.90
23251;DHT22;11794;49.730;10.088;2023-11-19T13:57:35;14.50;99.90
23251;DHT22;11794;49.730;10.088;2023-11-19T14:00:04;14.00;99.90
23251;DHT22;11794;49.730;10.088;2023-11-19T14:02:32;13.70;99.90
23251;DHT22;11794;49.730;10.088;2023-11-19T14:04:58;13.60;99.90
23251;DHT22;11794;49.730;10.088;2023-11-19T14:07:23;13.80;99.90
23251;DHT22;11794;49.730;10.088;2023-11-19T14:09:49;14.60;99.90
23251;DHT22;11794;49.730;10.088;2023-11-19T14:12:15;14.60;99.90
23251;DHT22;11794;49.730;10.088;2023-11-19T14:14:41;14.20;99.90
23251;DHT22;11794;49.730;10.088;2023-11-19T14:17:07;13.80;99.90
23251;DHT22;11794;49.730;10.088;2023-11-19T14:19:33;13.70;99.90
23251;DHT22;11794;49.730;10.088;2023-11-19T14:21:59;13.60;99.90
23251;DHT22;11794;49.730;10.088;2023-11-19T14:24:25;13.50;99.90
23251;DHT22;11794;49.730;10.088;2023-11-19T14:26:51;13.30;99.90
23251;DHT22;11794;49.730;10.088;2023-11-19T14:29:17;13.20;99.90
23251;DHT22;11794;49.730;10.088;2023-11-19T14:31:43;13.20;99.90
23251;DHT22;11794;49.730;10.088;2023-11-19T14:34:09;13.10;99.90
23251;DHT22;11794;49.730;10.088;2023-11-19T14:36:34;13.00;99.90
23251;DHT22;11794;49.730;10.088;2023-11-19T14:39:00;13.00;99.90
23251;DHT22;11794;49.730;10.088;2023-11-19T14:41:26;13.00;99.90
23251;DHT22;11794;49.730;10.088;2023-11-19T14:43:51;13.00;99.90
23251;DHT22;11794;49.730;10.088;2023-11-19T14:46:17;13.00;99.90
23251;DHT22;11794;49.730;10.088;2023-11-19T14:48:43;13.10;99.90
23251;DHT22;11794;49.730;10.088;2023-11-19T14:51:08;13.50;99.90
23251;DHT22;11794;49.730;10.088;2023-11-19T14:53:34;13.90;99.90
23251;DHT22;11794;49.730;10.088;2023-11-19T14:56:00;13.90;99.90
23251;DHT22;11794;49.730;10.088;2023-11-19T14:58:26;13.90;99.90
23251;DHT22;11794;49.730;10.088;2023-11-19T15:00:52;13.90;99.90
23251;DHT22;11794;49.730;10.088;2023-11-19T15:03:17;13.80;99.90
23251;DHT22;11794;49.730;10.088;2023-11-19T15:05:45;13.50;99.90
23251;DHT22;11794;49.730;10.088;2023-11-19T15:08:11;13.30;99.90
23251;DHT22;11794;49.730;10.088;2023-11-19T15:10:37;13.10;99.90
23251;DHT22;11794;49.730;10.088;2023-11-19T15:13:03;13.00;99.90
23251;DHT22;11794;49.730;10.088;2023-11-19T15:15:29;12.80;99.90
23251;DHT22;11794;49.730;10.088;2023-11-19T15:17:55;12.70;99.90
23251;DHT22;11794;49.730;10.088;2023-11-19T15:20:20;12.60;99.90
23251;DHT22;11794;49.730;10.088;2023-11-19T15:22:46;12.50;99.90
23251;DHT22;11794;49.730;10.088;2023-11-19T15:25:12;12.50;99.90
23251;DHT22;11794;49.730;10.088;2023-11-19T15:27:38;12.40;99.90
23251;DHT22;11794;49.730;10.088;2023-11-19T15:30:04;12.40;99.90
23251;DHT22;11794;49.730;10.088;2023-11-19T15:32:30;12.30;99.90
23251;DHT22;11794;49.730;10.088;2023-11-19T15:34:57;12.20;99.90
23251;DHT22;11794;49.730;10.088;2023-11-19T15:37:23;12.10;99.90
23251;DHT22;11794;49.730;10.088;2023-11-19T15:39:48;12.00;99.90